Terminal Aerodrome Forecast
Issued by NWS

Home | Current Version | Previous Version | Text Only | Print | Product List | Glossary On
Versions: 1 2 3 4 5 6 7 8 9 10 11 12 13 14 15
853
FTUS44 KTSA 252324
TAFMLC
TAF
KMLC 252324Z 2600/2624 32011KT P6SM SCT009 BKN018
     FM260900 34005KT P6SM OVC004
     FM261500 36006KT P6SM SCT250=

USA.gov is the U.S. government's official web portal to all federal, state and local government web resources and services.